sensor_id;sensor_type;location;lat;lon;timestamp;pressure;altitude;pressure_sealevel;temperature;humidity
38616;BME280;24370;51.986;4.666;2023-02-16T00:00:52;102422.25;;;13.65;49.58
38616;BME280;24370;51.986;4.666;2023-02-16T00:03:20;102434.59;;;14.50;47.12
38616;BME280;24370;51.986;4.666;2023-02-16T00:05:47;102425.84;;;14.20;47.23
38616;BME280;24370;51.986;4.666;2023-02-16T00:08:12;102418.84;;;14.22;47.54
38616;BME280;24370;51.986;4.666;2023-02-16T00:10:38;102428.41;;;13.72;49.01
38616;BME280;24370;51.986;4.666;2023-02-16T00:13:25;102419.72;;;14.18;47.54
38616;BME280;24370;51.986;4.666;2023-02-16T00:16:17;102419.47;;;13.27;50.71
38616;BME280;24370;51.986;4.666;2023-02-16T00:18:43;102421.81;;;12.72;51.46
38616;BME280;24370;51.986;4.666;2023-02-16T00:21:09;102427.31;;;13.19;51.07
38616;BME280;24370;51.986;4.666;2023-02-16T00:23:34;102421.38;;;13.65;49.20
38616;BME280;24370;51.986;4.666;2023-02-16T00:26:00;102409.19;;;13.95;48.56
38616;BME280;24370;51.986;4.666;2023-02-16T00:28:25;102415.03;;;13.12;51.14
38616;BME280;24370;51.986;4.666;2023-02-16T00:30:50;102421.34;;;12.08;54.13
38616;BME280;24370;51.986;4.666;2023-02-16T00:33:18;102418.56;;;13.17;50.62
38616;BME280;24370;51.986;4.666;2023-02-16T00:35:43;102420.44;;;13.39;50.85
38616;BME280;24370;51.986;4.666;2023-02-16T00:38:10;102414.94;;;12.93;52.12
38616;BME280;24370;51.986;4.666;2023-02-16T00:40:35;102409.16;;;13.98;48.56
38616;BME280;24370;51.986;4.666;2023-02-16T00:43:02;102406.38;;;13.34;49.81
38616;BME280;24370;51.986;4.666;2023-02-16T00:45:28;102408.78;;;12.89;51.53
38616;BME280;24370;51.986;4.666;2023-02-16T00:47:54;102409.47;;;12.53;52.85
38616;BME280;24370;51.986;4.666;2023-02-16T00:50:23;102402.84;;;13.26;50.74
38616;BME280;24370;51.986;4.666;2023-02-16T00:52:50;102398.63;;;13.74;48.60
38616;BME280;24370;51.986;4.666;2023-02-16T00:55:20;102400.28;;;13.35;49.87
38616;BME280;24370;51.986;4.666;2023-02-16T00:58:14;102393.34;;;13.59;49.53
38616;BME280;24370;51.986;4.666;2023-02-16T01:00:40;102404.59;;;13.27;50.07
38616;BME280;24370;51.986;4.666;2023-02-16T01:03:10;102402.16;;;13.94;47.83
38616;BME280;24370;51.986;4.666;2023-02-16T01:05:37;102409.69;;;12.93;51.02
38616;BME280;24370;51.986;4.666;2023-02-16T01:08:08;102396.03;;;14.19;47.52
38616;BME280;24370;51.986;4.666;2023-02-16T01:10:52;102387.25;;;13.88;48.19
38616;BME280;24370;51.986;4.666;2023-02-16T01:13:42;102386.31;;;13.50;49.12
38616;BME280;24370;51.986;4.666;2023-02-16T01:16:15;102395.59;;;12.72;51.14
38616;BME280;24370;51.986;4.666;2023-02-16T01:18:42;102396.00;;;14.02;48.14
38616;BME280;24370;51.986;4.666;2023-02-16T01:21:07;102394.25;;;13.86;48.38
38616;BME280;24370;51.986;4.666;2023-02-16T01:23:34;102394.25;;;13.67;48.51
38616;BME280;24370;51.986;4.666;2023-02-16T01:26:00;102394.22;;;13.63;48.71
38616;BME280;24370;51.986;4.666;2023-02-16T01:28:25;102393.34;;;13.65;48.20
38616;BME280;24370;51.986;4.666;2023-02-16T01:30:52;102387.09;;;13.31;49.98
38616;BME280;24370;51.986;4.666;2023-02-16T01:33:18;102392.44;;;13.48;48.81
38616;BME280;24370;51.986;4.666;2023-02-16T01:35:44;102390.63;;;13.31;49.37
38616;BME280;24370;51.986;4.666;2023-02-16T01:38:21;102393.22;;;13.28;50.44
38616;BME280;24370;51.986;4.666;2023-02-16T01:43:45;102391.59;;;13.70;48.96
38616;BME280;24370;51.986;4.666;2023-02-16T01:46:38;102388.50;;;12.59;50.97
38616;BME280;24370;51.986;4.666;2023-02-16T01:49:11;102387.09;;;13.29;50.10
38616;BME280;24370;51.986;4.666;2023-02-16T01:51:55;102374.78;;;13.14;50.19
38616;BME280;24370;51.986;4.666;2023-02-16T01:54:30;102378.41;;;13.39;49.80
38616;BME280;24370;51.986;4.666;2023-02-16T01:57:09;102378.47;;;13.70;49.34
38616;BME280;24370;51.986;4.666;2023-02-16T02:02:23;102383.59;;;13.33;49.79
38616;BME280;24370;51.986;4.666;2023-02-16T02:04:59;102387.22;;;13.68;48.40
38616;BME280;24370;51.986;4.666;2023-02-16T02:07:58;102375.84;;;13.84;47.59
38616;BME280;24370;51.986;4.666;2023-02-16T02:10:48;102380.25;;;14.15;47.86
38616;BME280;24370;51.986;4.666;2023-02-16T02:16:03;102368.84;;;14.34;46.22
38616;BME280;24370;51.986;4.666;2023-02-16T02:18:29;102374.97;;;13.90;47.78
38616;BME280;24370;51.986;4.666;2023-02-16T02:32:17;102348.69;;;13.74;48.05
38616;BME280;24370;51.986;4.666;2023-02-16T02:42:54;102334.66;;;14.30;46.20
38616;BME280;24370;51.986;4.666;2023-02-16T02:45:37;102328.50;;;14.24;46.39
38616;BME280;24370;51.986;4.666;2023-02-16T02:48:05;102318.00;;;14.12;46.42
38616;BME280;24370;51.986;4.666;2023-02-16T02:53:28;102329.44;;;13.60;47.62
38616;BME280;24370;51.986;4.666;2023-02-16T02:55:54;102317.13;;;14.30;46.07
38616;BME280;24370;51.986;4.666;2023-02-16T02:58:42;102304.84;;;14.38;46.30
38616;BME280;24370;51.986;4.666;2023-02-16T03:01:36;102308.38;;;14.25;46.32
38616;BME280;24370;51.986;4.666;2023-02-16T03:04:05;102315.38;;;14.29;46.26
38616;BME280;24370;51.986;4.666;2023-02-16T03:06:37;102308.38;;;14.25;46.16
38616;BME280;24370;51.986;4.666;2023-02-16T03:09:08;102315.38;;;13.61;47.69
38616;BME280;24370;51.986;4.666;2023-02-16T03:11:36;102304.84;;;14.29;45.87
38616;BME280;24370;51.986;4.666;2023-02-16T03:14:36;102297.75;;;14.68;44.90
38616;BME280;24370;51.986;4.666;2023-02-16T03:17:10;102304.91;;;13.92;46.96
38616;BME280;24370;51.986;4.666;2023-02-16T03:19:57;102298.59;;;14.75;44.67
38616;BME280;24370;51.986;4.666;2023-02-16T03:22:43;102304.91;;;13.95;46.17
38616;BME280;24370;51.986;4.666;2023-02-16T03:25:31;102312.78;;;14.14;46.12
38616;BME280;24370;51.986;4.666;2023-02-16T03:28:17;102317.03;;;14.80;44.88
38616;BME280;24370;51.986;4.666;2023-02-16T03:31:03;102308.00;;;15.24;43.82
38616;BME280;24370;51.986;4.666;2023-02-16T03:33:30;102313.59;;;14.36;45.23
38616;BME280;24370;51.986;4.666;2023-02-16T03:35:57;102314.44;;;14.63;45.13
38616;BME280;24370;51.986;4.666;2023-02-16T03:38:23;102304.78;;;14.48;45.33
38616;BME280;24370;51.986;4.666;2023-02-16T03:40:50;102305.72;;;14.31;46.10
38616;BME280;24370;51.986;4.666;2023-02-16T03:43:16;102314.53;;;13.62;46.44
38616;BME280;24370;51.986;4.666;2023-02-16T03:45:43;102310.06;;;14.54;45.25
38616;BME280;24370;51.986;4.666;2023-02-16T03:48:09;102308.28;;;14.59;45.22
38616;BME280;24370;51.986;4.666;2023-02-16T03:50:35;102301.72;;;15.45;43.30
38616;BME280;24370;51.986;4.666;2023-02-16T03:53:00;102309.63;;;15.43;43.73
38616;BME280;24370;51.986;4.666;2023-02-16T03:55:43;102306.63;;;14.15;45.97
38616;BME280;24370;51.986;4.666;2023-02-16T03:58:11;102311.81;;;14.67;45.11
38616;BME280;24370;51.986;4.666;2023-02-16T04:00:37;102297.72;;;14.78;45.02
38616;BME280;24370;51.986;4.666;2023-02-16T04:03:03;102294.94;;;15.10;44.50
38616;BME280;24370;51.986;4.666;2023-02-16T04:05:29;102297.63;;;14.99;45.13
38616;BME280;24370;51.986;4.666;2023-02-16T04:07:54;102299.38;;;14.97;44.96
38616;BME280;24370;51.986;4.666;2023-02-16T04:10:20;102299.59;;;14.29;45.92
38616;BME280;24370;51.986;4.666;2023-02-16T04:12:46;102288.63;;;15.33;44.13
38616;BME280;24370;51.986;4.666;2023-02-16T04:15:17;102307.97;;;15.27;44.36
38616;BME280;24370;51.986;4.666;2023-02-16T04:17:43;102316.69;;;15.41;44.09
38616;BME280;24370;51.986;4.666;2023-02-16T04:20:13;102323.75;;;15.30;43.91
38616;BME280;24370;51.986;4.666;2023-02-16T04:22:39;102322.88;;;15.37;43.91
38616;BME280;24370;51.986;4.666;2023-02-16T04:25:05;102324.00;;;14.81;44.62
38616;BME280;24370;51.986;4.666;2023-02-16T04:27:30;102320.53;;;14.79;45.49
38616;BME280;24370;51.986;4.666;2023-02-16T04:29:56;102322.38;;;14.24;46.86
38616;BME280;24370;51.986;4.666;2023-02-16T04:32:21;102311.88;;;14.15;47.08
38616;BME280;24370;51.986;4.666;2023-02-16T04:34:47;102311.88;;;14.21;46.56
38616;BME280;24370;51.986;4.666;2023-02-16T04:37:12;102305.72;;;14.36;46.42
38616;BME280;24370;51.986;4.666;2023-02-16T04:39:37;102306.53;;;14.64;45.30
38616;BME280;24370;51.986;4.666;2023-02-16T04:42:03;102295.00;;;14.96;45.35
38616;BME280;24370;51.986;4.666;2023-02-16T04:44:28;102302.09;;;14.80;44.97
38616;BME280;24370;51.986;4.666;2023-02-16T04:46:54;102294.31;;;14.41;46.17
38616;BME280;24370;51.986;4.666;2023-02-16T04:49:19;102296.81;;;14.80;45.57
38616;BME280;24370;51.986;4.666;2023-02-16T04:51:45;102288.88;;;14.91;45.05
38616;BME280;24370;51.986;4.666;2023-02-16T04:54:10;102292.63;;;14.03;46.97
38616;BME280;24370;51.986;4.666;2023-02-16T04:56:35;102296.03;;;14.49;46.54
38616;BME280;24370;51.986;4.666;2023-02-16T04:59:02;102297.63;;;14.98;45.52
38616;BME280;24370;51.986;4.666;2023-02-16T05:01:27;102291.72;;;14.26;46.93
38616;BME280;24370;51.986;4.666;2023-02-16T05:03:53;102292.50;;;14.51;46.47
38616;BME280;24370;51.986;4.666;2023-02-16T05:06:19;102294.28;;;14.51;46.19
38616;BME280;24370;51.986;4.666;2023-02-16T05:08:44;102296.09;;;14.25;47.09
38616;BME280;24370;51.986;4.666;2023-02-16T05:11:11;102284.72;;;14.16;47.69
38616;BME280;24370;51.986;4.666;2023-02-16T05:13:58;102289.13;;;13.67;47.82
38616;BME280;24370;51.986;4.666;2023-02-16T05:16:44;102294.38;;;13.67;48.68
38616;BME280;24370;51.986;4.666;2023-02-16T05:19:10;102285.63;;;13.73;48.46
38616;BME280;24370;51.986;4.666;2023-02-16T05:21:35;102289.13;;;13.86;48.38
38616;BME280;24370;51.986;4.666;2023-02-16T05:24:06;102289.13;;;13.83;48.44
38616;BME280;24370;51.986;4.666;2023-02-16T05:26:33;102284.75;;;13.48;48.91
38616;BME280;24370;51.986;4.666;2023-02-16T05:28:59;102273.38;;;13.89;48.32
38616;BME280;24370;51.986;4.666;2023-02-16T05:31:26;102272.47;;;13.79;48.08
38616;BME280;24370;51.986;4.666;2023-02-16T05:33:52;102269.56;;;14.89;46.05
38616;BME280;24370;51.986;4.666;2023-02-16T05:36:17;102280.34;;;13.40;48.49
38616;BME280;24370;51.986;4.666;2023-02-16T05:38:43;102278.47;;;14.57;46.41
38616;BME280;24370;51.986;4.666;2023-02-16T05:41:08;102279.03;;;15.25;45.42
38616;BME280;24370;51.986;4.666;2023-02-16T05:43:34;102281.97;;;14.71;46.51
38616;BME280;24370;51.986;4.666;2023-02-16T05:46:06;102281.69;;;15.18;45.44
38616;BME280;24370;51.986;4.666;2023-02-16T05:48:31;102282.69;;;14.98;45.49
38616;BME280;24370;51.986;4.666;2023-02-16T05:50:56;102288.09;;;14.61;46.57
38616;BME280;24370;51.986;4.666;2023-02-16T05:53:22;102301.19;;;14.86;45.70
38616;BME280;24370;51.986;4.666;2023-02-16T05:55:47;102290.53;;;15.10;45.39
38616;BME280;24370;51.986;4.666;2023-02-16T05:58:13;102291.31;;;15.26;45.57
38616;BME280;24370;51.986;4.666;2023-02-16T06:00:38;102292.56;;;14.28;47.11
38616;BME280;24370;51.986;4.666;2023-02-16T06:03:03;102288.94;;;14.62;47.50
38616;BME280;24370;51.986;4.666;2023-02-16T06:05:29;102278.34;;;14.92;45.59
38616;BME280;24370;51.986;4.666;2023-02-16T06:07:54;102280.22;;;14.67;46.51
38616;BME280;24370;51.986;4.666;2023-02-16T06:10:19;102288.25;;;13.93;48.44
38616;BME280;24370;51.986;4.666;2023-02-16T06:12:45;102287.09;;;14.96;46.41
38616;BME280;24370;51.986;4.666;2023-02-16T06:15:11;102279.50;;;13.91;49.08
38616;BME280;24370;51.986;4.666;2023-02-16T06:17:36;102272.72;;;15.50;45.33
38616;BME280;24370;51.986;4.666;2023-02-16T06:20:03;102283.88;;;13.89;49.09
38616;BME280;24370;51.986;4.666;2023-02-16T06:22:28;102267.94;;;14.66;47.26
38616;BME280;24370;51.986;4.666;2023-02-16T06:24:54;102276.63;;;14.84;46.97
38616;BME280;24370;51.986;4.666;2023-02-16T06:27:19;102286.44;;;14.20;47.72
38616;BME280;24370;51.986;4.666;2023-02-16T06:29:44;102285.59;;;14.18;48.52
38616;BME280;24370;51.986;4.666;2023-02-16T06:32:10;102281.81;;;14.99;46.96
38616;BME280;24370;51.986;4.666;2023-02-16T06:34:35;102279.97;;;15.14;46.54
38616;BME280;24370;51.986;4.666;2023-02-16T06:37:00;102283.69;;;14.75;47.08
38616;BME280;24370;51.986;4.666;2023-02-16T06:39:26;102294.16;;;14.85;46.61
38616;BME280;24370;51.986;4.666;2023-02-16T06:41:51;102283.53;;;15.06;46.25
38616;BME280;24370;51.986;4.666;2023-02-16T06:44:16;102288.75;;;15.09;46.79
38616;BME280;24370;51.986;4.666;2023-02-16T06:46:44;102286.34;;;14.68;47.38
38616;BME280;24370;51.986;4.666;2023-02-16T06:49:18;102297.75;;;14.64;47.58
38616;BME280;24370;51.986;4.666;2023-02-16T06:51:44;102299.38;;;14.94;47.01
38616;BME280;24370;51.986;4.666;2023-02-16T06:54:10;102303.66;;;15.18;45.87
38616;BME280;24370;51.986;4.666;2023-02-16T06:56:35;102304.44;;;15.31;46.43
38616;BME280;24370;51.986;4.666;2023-02-16T06:59:02;102304.63;;;14.97;46.88
38616;BME280;24370;51.986;4.666;2023-02-16T07:01:28;102305.44;;;15.07;46.14
38616;BME280;24370;51.986;4.666;2023-02-16T07:03:54;102317.97;;;16.04;44.63
38616;BME280;24370;51.986;4.666;2023-02-16T07:06:21;102318.13;;;15.86;45.09
38616;BME280;24370;51.986;4.666;2023-02-16T07:08:47;102311.56;;;16.30;44.02
38616;BME280;24370;51.986;4.666;2023-02-16T07:11:13;102311.78;;;14.64;47.24
38616;BME280;24370;51.986;4.666;2023-02-16T07:13:38;102313.38;;;15.05;47.42
38616;BME280;24370;51.986;4.666;2023-02-16T07:16:05;102318.72;;;14.87;47.04
38616;BME280;24370;51.986;4.666;2023-02-16T07:18:31;102317.81;;;14.92;47.27
38616;BME280;24370;51.986;4.666;2023-02-16T07:20:57;102320.53;;;14.79;47.90
38616;BME280;24370;51.986;4.666;2023-02-16T07:23:22;102319.69;;;14.55;48.20
38616;BME280;24370;51.986;4.666;2023-02-16T07:25:48;102324.16;;;13.82;49.81
38616;BME280;24370;51.986;4.666;2023-02-16T07:28:13;102315.31;;;14.65;48.94
38616;BME280;24370;51.986;4.666;2023-02-16T07:30:39;102310.47;;;15.49;46.61
38616;BME280;24370;51.986;4.666;2023-02-16T07:33:05;102327.53;;;14.76;47.25
38616;BME280;24370;51.986;4.666;2023-02-16T07:35:34;102324.06;;;14.62;48.25
38616;BME280;24370;51.986;4.666;2023-02-16T07:37:59;102324.97;;;14.55;48.88
38616;BME280;24370;51.986;4.666;2023-02-16T07:40:25;102332.91;;;13.53;50.69
38616;BME280;24370;51.986;4.666;2023-02-16T07:42:50;102329.34;;;14.59;48.58
38616;BME280;24370;51.986;4.666;2023-02-16T07:45:16;102350.47;;;14.00;49.83
38616;BME280;24370;51.986;4.666;2023-02-16T07:47:41;102341.69;;;13.78;50.17
38616;BME280;24370;51.986;4.666;2023-02-16T07:50:07;102345.16;;;14.47;48.65
38616;BME280;24370;51.986;4.666;2023-02-16T07:52:33;102352.22;;;14.01;49.72
38616;BME280;24370;51.986;4.666;2023-02-16T07:54:59;102350.28;;;14.96;48.12
38616;BME280;24370;51.986;4.666;2023-02-16T07:57:26;102345.13;;;14.62;48.18
38616;BME280;24370;51.986;4.666;2023-02-16T07:59:52;102352.19;;;14.23;48.63
38616;BME280;24370;51.986;4.666;2023-02-16T08:02:18;102357.41;;;14.45;48.80
38616;BME280;24370;51.986;4.666;2023-02-16T08:04:45;102354.78;;;14.63;48.95
38616;BME280;24370;51.986;4.666;2023-02-16T08:07:12;102357.47;;;14.11;50.10
38616;BME280;24370;51.986;4.666;2023-02-16T08:09:38;102361.88;;;14.05;49.55
38616;BME280;24370;51.986;4.666;2023-02-16T08:12:07;102355.69;;;13.94;50.63
38616;BME280;24370;51.986;4.666;2023-02-16T08:14:33;102356.59;;;13.73;51.60
38616;BME280;24370;51.986;4.666;2023-02-16T08:16:58;102357.44;;;14.51;49.92
38616;BME280;24370;51.986;4.666;2023-02-16T08:19:23;102359.22;;;14.18;51.30
38616;BME280;24370;51.986;4.666;2023-02-16T08:21:49;102364.44;;;14.27;51.49
38616;BME280;24370;51.986;4.666;2023-02-16T08:24:14;102376.75;;;14.06;52.21
38616;BME280;24370;51.986;4.666;2023-02-16T08:26:41;102367.06;;;14.69;50.58
38616;BME280;24370;51.986;4.666;2023-02-16T08:29:08;102367.97;;;14.29;51.78
38616;BME280;24370;51.986;4.666;2023-02-16T08:31:35;102374.97;;;14.02;52.17
38616;BME280;24370;51.986;4.666;2023-02-16T08:34:03;102366.16;;;14.62;50.92
38616;BME280;24370;51.986;4.666;2023-02-16T08:36:34;102366.19;;;14.71;50.86
38616;BME280;24370;51.986;4.666;2023-02-16T08:39:07;102380.25;;;13.93;53.57
38616;BME280;24370;51.986;4.666;2023-02-16T08:41:36;102390.66;;;13.40;56.39
38616;BME280;24370;51.986;4.666;2023-02-16T08:44:02;102385.50;;;14.21;54.48
38616;BME280;24370;51.986;4.666;2023-02-16T08:46:29;102379.38;;;13.89;55.64
38616;BME280;24370;51.986;4.666;2023-02-16T08:48:56;102375.84;;;13.64;55.92
38616;BME280;24370;51.986;4.666;2023-02-16T08:51:23;102376.66;;;13.42;58.44
38616;BME280;24370;51.986;4.666;2023-02-16T08:53:50;102375.00;;;14.10;56.07
38616;BME280;24370;51.986;4.666;2023-02-16T08:56:17;102380.25;;;13.96;56.89
38616;BME280;24370;51.986;4.666;2023-02-16T08:58:42;102374.06;;;14.71;55.06
38616;BME280;24370;51.986;4.666;2023-02-16T09:01:09;102377.63;;;13.81;59.00
38616;BME280;24370;51.986;4.666;2023-02-16T09:03:36;102377.59;;;14.04;58.93
38616;BME280;24370;51.986;4.666;2023-02-16T09:06:04;102373.25;;;14.26;57.19
38616;BME280;24370;51.986;4.666;2023-02-16T09:08:30;102380.25;;;13.87;58.47
38616;BME280;24370;51.986;4.666;2023-02-16T09:11:04;102373.97;;;15.01;55.40
38616;BME280;24370;51.986;4.666;2023-02-16T09:13:32;102362.41;;;15.30;53.36
38616;BME280;24370;51.986;4.666;2023-02-16T09:16:05;102359.97;;;14.91;56.49
38616;BME280;24370;51.986;4.666;2023-02-16T09:18:31;102378.44;;;14.49;56.36
38616;BME280;24370;51.986;4.666;2023-02-16T09:21:09;102366.97;;;14.95;55.22
38616;BME280;24370;51.986;4.666;2023-02-16T09:23:39;102369.66;;;14.83;56.02
38616;BME280;24370;51.986;4.666;2023-02-16T09:26:05;102370.56;;;14.65;57.28
38616;BME280;24370;51.986;4.666;2023-02-16T09:28:37;102367.00;;;14.76;57.35
38616;BME280;24370;51.986;4.666;2023-02-16T09:31:08;102372.31;;;14.52;57.59
38616;BME280;24370;51.986;4.666;2023-02-16T09:33:34;102372.28;;;14.81;56.66
38616;BME280;24370;51.986;4.666;2023-02-16T09:36:03;102374.09;;;14.42;57.78
38616;BME280;24370;51.986;4.666;2023-02-16T09:38:29;102368.38;;;15.56;54.97
38616;BME280;24370;51.986;4.666;2023-02-16T09:40:55;102364.44;;;14.36;59.04
38616;BME280;24370;51.986;4.666;2023-02-16T09:43:59;102372.38;;;13.84;63.32
38616;BME280;24370;51.986;4.666;2023-02-16T09:46:29;102354.75;;;14.75;60.35
38616;BME280;24370;51.986;4.666;2023-02-16T09:48:55;102358.31;;;14.42;60.01
38616;BME280;24370;51.986;4.666;2023-02-16T09:51:33;102353.56;;;15.38;59.16
38616;BME280;24370;51.986;4.666;2023-02-16T09:54:18;102347.53;;;16.37;53.71
38616;BME280;24370;51.986;4.666;2023-02-16T09:57:03;102357.84;;;15.56;55.39
38616;BME280;24370;51.986;4.666;2023-02-16T10:05:16;102355.91;;;15.91;55.36
38616;BME280;24370;51.986;4.666;2023-02-16T10:13:21;102343.09;;;15.26;57.61
38616;BME280;24370;51.986;4.666;2023-02-16T10:15:49;102349.50;;;14.75;57.89
38616;BME280;24370;51.986;4.666;2023-02-16T10:18:21;102346.31;;;15.71;57.86
38616;BME280;24370;51.986;4.666;2023-02-16T10:20:52;102344.59;;;15.70;55.93
38616;BME280;24370;51.986;4.666;2023-02-16T10:28:53;102333.66;;;16.17;54.01
38616;BME280;24370;51.986;4.666;2023-02-16T10:42:02;102341.56;;;16.21;55.79
38616;BME280;24370;51.986;4.666;2023-02-16T10:44:34;102337.50;;;15.83;56.34
38616;BME280;24370;51.986;4.666;2023-02-16T10:47:03;102333.06;;;15.84;56.56
38616;BME280;24370;51.986;4.666;2023-02-16T10:49:30;102341.41;;;15.19;58.81
38616;BME280;24370;51.986;4.666;2023-02-16T10:51:58;102339.75;;;14.96;59.34
38616;BME280;24370;51.986;4.666;2023-02-16T10:54:27;102345.91;;;14.89;61.63
38616;BME280;24370;51.986;4.666;2023-02-16T11:01:58;102336.72;;;16.62;55.51
38616;BME280;24370;51.986;4.666;2023-02-16T11:04:37;102337.69;;;15.55;59.33
38616;BME280;24370;51.986;4.666;2023-02-16T11:07:11;102342.28;;;15.18;59.57
38616;BME280;24370;51.986;4.666;2023-02-16T11:09:38;102342.75;;;15.85;57.78
38616;BME280;24370;51.986;4.666;2023-02-16T11:15:01;102320.84;;;15.69;57.78
38616;BME280;24370;51.986;4.666;2023-02-16T11:17:28;102324.00;;;16.17;56.33
38616;BME280;24370;51.986;4.666;2023-02-16T11:20:00;102316.03;;;17.01;54.04
38616;BME280;24370;51.986;4.666;2023-02-16T11:22:37;102312.88;;;16.70;56.31
38616;BME280;24370;51.986;4.666;2023-02-16T11:25:24;102324.44;;;16.58;55.70
38616;BME280;24370;51.986;4.666;2023-02-16T11:27:56;102319.75;;;16.83;55.02
38616;BME280;24370;51.986;4.666;2023-02-16T11:30:30;102314.81;;;17.24;54.57
38616;BME280;24370;51.986;4.666;2023-02-16T11:32:57;102321.06;;;17.18;54.31
38616;BME280;24370;51.986;4.666;2023-02-16T11:35:24;102316.22;;;17.50;53.67
38616;BME280;24370;51.986;4.666;2023-02-16T11:37:49;102311.28;;;17.25;54.55
38616;BME280;24370;51.986;4.666;2023-02-16T11:42:46;102305.75;;;17.43;53.81
38616;BME280;24370;51.986;4.666;2023-02-16T11:45:33;102309.88;;;16.99;54.82
38616;BME280;24370;51.986;4.666;2023-02-16T11:48:04;102308.94;;;17.64;52.69
38616;BME280;24370;51.986;4.666;2023-02-16T11:50:36;102302.94;;;16.16;56.77
38616;BME280;24370;51.986;4.666;2023-02-16T11:55:35;102299.47;;;16.90;55.43
38616;BME280;24370;51.986;4.666;2023-02-16T11:58:27;102284.25;;;18.17;52.01
38616;BME280;24370;51.986;4.666;2023-02-16T12:07:03;102275.63;;;17.54;53.35
38616;BME280;24370;51.986;4.666;2023-02-16T12:09:37;102264.63;;;17.78;51.96
38616;BME280;24370;51.986;4.666;2023-02-16T12:12:30;102256.19;;;18.08;51.11
38616;BME280;24370;51.986;4.666;2023-02-16T12:21:01;102251.66;;;18.14;49.91
38616;BME280;24370;51.986;4.666;2023-02-16T12:28:57;102232.91;;;19.10;47.34
38616;BME280;24370;51.986;4.666;2023-02-16T12:34:59;102230.94;;;18.77;48.86
38616;BME280;24370;51.986;4.666;2023-02-16T12:37:44;102225.81;;;18.71;48.03
38616;BME280;24370;51.986;4.666;2023-02-16T12:42:52;102229.94;;;18.42;48.17
38616;BME280;24370;51.986;4.666;2023-02-16T12:45:26;102228.00;;;18.91;47.75
38616;BME280;24370;51.986;4.666;2023-02-16T12:48:07;102230.03;;;19.18;46.69
38616;BME280;24370;51.986;4.666;2023-02-16T12:50:40;102231.94;;;19.85;45.32
38616;BME280;24370;51.986;4.666;2023-02-16T12:53:24;102225.00;;;19.44;46.01
38616;BME280;24370;51.986;4.666;2023-02-16T12:55:56;102223.84;;;18.79;47.43
38616;BME280;24370;51.986;4.666;2023-02-16T12:58:24;102214.25;;;19.49;46.30
38616;BME280;24370;51.986;4.666;2023-02-16T13:00:53;102205.28;;;19.19;46.27
38616;BME280;24370;51.986;4.666;2023-02-16T13:06:31;102202.50;;;18.86;46.75
38616;BME280;24370;51.986;4.666;2023-02-16T13:14:20;102181.94;;;18.58;46.10
38616;BME280;24370;51.986;4.666;2023-02-16T13:16:55;102169.66;;;19.30;44.47
38616;BME280;24370;51.986;4.666;2023-02-16T13:19:22;102177.72;;;18.49;45.66
38616;BME280;24370;51.986;4.666;2023-02-16T13:22:05;102168.31;;;17.92;47.53
38616;BME280;24370;51.986;4.666;2023-02-16T13:27:48;102160.16;;;18.04;46.79
38616;BME280;24370;51.986;4.666;2023-02-16T13:30:53;102162.84;;;18.00;46.57
38616;BME280;24370;51.986;4.666;2023-02-16T13:36:07;102162.84;;;18.43;45.70
38616;BME280;24370;51.986;4.666;2023-02-16T13:41:24;102149.84;;;17.89;46.77
38616;BME280;24370;51.986;4.666;2023-02-16T13:43:56;102149.63;;;18.42;45.42
38616;BME280;24370;51.986;4.666;2023-02-16T13:46:38;102145.53;;;18.27;46.04
38616;BME280;24370;51.986;4.666;2023-02-16T13:49:05;102149.28;;;17.23;48.52
38616;BME280;24370;51.986;4.666;2023-02-16T13:51:43;102138.38;;;17.41;48.21
38616;BME280;24370;51.986;4.666;2023-02-16T13:54:32;102135.84;;;17.37;48.25
38616;BME280;24370;51.986;4.666;2023-02-16T13:56:59;102142.81;;;17.88;47.08
38616;BME280;24370;51.986;4.666;2023-02-16T14:01:55;102127.75;;;17.91;48.33
38616;BME280;24370;51.986;4.666;2023-02-16T14:06:50;102121.03;;;17.73;48.65
38616;BME280;24370;51.986;4.666;2023-02-16T14:14:38;102118.09;;;17.89;48.92
38616;BME280;24370;51.986;4.666;2023-02-16T14:17:22;102116.59;;;17.75;48.73
38616;BME280;24370;51.986;4.666;2023-02-16T14:19:58;102115.72;;;18.19;47.52
38616;BME280;24370;51.986;4.666;2023-02-16T14:22:36;102105.28;;;18.12;48.54
38616;BME280;24370;51.986;4.666;2023-02-16T14:30:44;102111.13;;;17.39;51.12
38616;BME280;24370;51.986;4.666;2023-02-16T14:38:36;102109.28;;;16.93;53.36
38616;BME280;24370;51.986;4.666;2023-02-16T14:41:34;102107.81;;;17.26;53.21
38616;BME280;24370;51.986;4.666;2023-02-16T14:44:30;102118.66;;;16.52;55.20
38616;BME280;24370;51.986;4.666;2023-02-16T14:55:05;102119.91;;;16.85;58.63
38616;BME280;24370;51.986;4.666;2023-02-16T14:57:43;102130.75;;;16.68;57.99
38616;BME280;24370;51.986;4.666;2023-02-16T15:00:39;102124.75;;;16.55;60.17
38616;BME280;24370;51.986;4.666;2023-02-16T15:05:42;102117.09;;;16.38;63.59
38616;BME280;24370;51.986;4.666;2023-02-16T15:08:19;102110.41;;;16.11;63.93
38616;BME280;24370;51.986;4.666;2023-02-16T15:10:51;102106.44;;;16.46;62.82
38616;BME280;24370;51.986;4.666;2023-02-16T15:13:23;102092.88;;;17.24;58.33
38616;BME280;24370;51.986;4.666;2023-02-16T15:15:52;102090.06;;;16.82;60.57
38616;BME280;24370;51.986;4.666;2023-02-16T15:18:27;102096.13;;;16.90;60.88
38616;BME280;24370;51.986;4.666;2023-02-16T15:20:55;102098.75;;;16.90;59.85
38616;BME280;24370;51.986;4.666;2023-02-16T15:23:24;102115.56;;;16.22;62.10
38616;BME280;24370;51.986;4.666;2023-02-16T15:26:02;102109.81;;;16.56;62.79
38616;BME280;24370;51.986;4.666;2023-02-16T15:28:34;102110.06;;;16.96;58.59
38616;BME280;24370;51.986;4.666;2023-02-16T15:31:03;102109.28;;;16.32;62.04